logo
Search for airport 
image banner adimage banner adimage banner ad
image banner ad

EYBI - Birzai

Located in Birzai, Lithuania

ICAO - EYBI, IATA -

Data provided by Airmate  

General information

Coordinates: N56°10'34" E24°45'36"
Elevation is 190 feet MSL.
Magnetic variation is 7° East
View others Airports in Panevežys County

Operational data

Special qualification required
Current time UTC:
Current local time:
Weather at : - ( 0 km )
METAR: LWSK 170720Z VRB03KT 9999 FEW023 SCT049 BKN064 17/13 Q0999 NOSIG
View NOTAMs / SUP AIP / TFR affecting this airport [VIEW]
Communications frequencies: [VIEW]

Runways:

RWY identifierQFULength (ft)Width (ft)SurfaceLDA (ft)
15159°196998GRASS
34339°196998GRASS
0333°196998GRASS
21213°196998GRASS
3300UNK

Airport contact information

Address: Birzai Lithuania

Other aviation service providers

Aviation club (not for profit)

Biržų Aeroklubas

Biržų Aeroklubas
birzuaeroklubas@gmail.com+37068727466
+37068727466

Satellite view of EYBI